Time;durP1;ratioP1;P1;durP2;ratioP2;P2;SDS_P1;SDS_P2;PMS_P1;PMS_P2;Temp;Humidity;BMP_temperature;BMP_pressure;BME280_temperature;BME280_humidity;BME280_pressure;Samples;Min_cycle;Max_cycle;Signal;HPM_P1;HPM_P2
2021/12/08 00:00:50;;;;;;;1.63;0.90;;;14.90;48.20;;;;;;5097731;28;20012;-36
2021/12/08 00:03:15;;;;;;;3.03;1.10;;;15.00;48.30;;;;;;5097820;28;20036;-35
2021/12/08 00:05:42;;;;;;;2.17;1.00;;;14.90;48.80;;;;;;5098041;28;20028;-36
2021/12/08 00:08:08;;;;;;;1.85;0.90;;;14.90;48.50;;;;;;5097630;28;20488;-36
2021/12/08 00:13:05;;;;;;;2.75;0.93;;;14.90;48.60;;;;;;5079442;28;20520;-36
2021/12/08 00:15:35;;;;;;;4.05;0.93;;;14.90;48.60;;;;;;5097437;28;20019;-35
2021/12/08 00:18:01;;;;;;;;;;;14.90;48.50;;;;;;5097217;28;20000;-36
2021/12/08 00:20:30;;;;;;;2.53;1.05;;;14.90;48.60;;;;;;5096966;28;19990;-36
2021/12/08 00:22:55;;;;;;;1.63;0.90;;;14.90;48.60;;;;;;5097015;28;20026;-36
2021/12/08 00:25:21;;;;;;;1.90;0.90;;;14.90;48.60;;;;;;5097223;28;20478;-35
2021/12/08 00:27:47;;;;;;;1.65;1.00;;;14.90;48.70;;;;;;5078876;28;20074;-36
2021/12/08 00:30:15;;;;;;;1.75;0.90;;;14.90;48.70;;;;;;5079239;28;20016;-36
2021/12/08 00:32:41;;;;;;;1.65;0.90;;;14.90;49.30;;;;;;5075332;28;20040;-35
2021/12/08 00:35:07;;;;;;;1.77;1.00;;;14.90;48.90;;;;;;5076862;28;20012;-36
2021/12/08 00:37:33;;;;;;;2.08;0.90;;;14.90;48.70;;;;;;5076844;28;20015;-36
2021/12/08 00:39:59;;;;;;;2.15;1.23;;;14.90;48.80;;;;;;5076607;28;20073;-35
2021/12/08 00:42:25;;;;;;;1.20;0.80;;;14.90;48.90;;;;;;5077424;28;20020;-36
2021/12/08 00:44:51;;;;;;;1.65;0.95;;;14.80;48.80;;;;;;5076884;28;20017;-36
2021/12/08 00:47:17;;;;;;;1.80;0.90;;;14.80;49.40;;;;;;5058523;28;20031;-37
2021/12/08 00:49:45;;;;;;;1.75;0.90;;;14.90;49.00;;;;;;5077196;28;20016;-37
2021/12/08 00:52:11;;;;;;;1.50;0.73;;;14.90;48.90;;;;;;5075941;28;20429;-36
2021/12/08 00:54:37;;;;;;;2.97;1.00;;;14.80;48.90;;;;;;5075411;28;20021;-36
2021/12/08 00:57:03;;;;;;;2.45;1.20;;;14.80;49.00;;;;;;5076025;28;20028;-36
2021/12/08 00:59:29;;;;;;;2.35;0.80;;;14.80;48.90;;;;;;5077552;28;20016;-36
2021/12/08 01:01:57;;;;;;;2.15;0.80;;;14.80;49.00;;;;;;5058934;28;20028;-37
2021/12/08 01:04:23;;;;;;;2.45;1.10;;;14.80;48.90;;;;;;5076522;28;20431;-36
2021/12/08 01:06:49;;;;;;;1.65;0.90;;;14.80;49.00;;;;;;5076341;28;20051;-36
2021/12/08 01:09:18;;;;;;;1.92;0.90;;;14.80;49.00;;;;;;5076809;28;20020;-35
2021/12/08 01:11:44;;;;;;;1.85;0.88;;;14.80;49.10;;;;;;5075705;28;20478;-36
2021/12/08 01:14:10;;;;;;;1.90;0.98;;;14.80;49.20;;;;;;5075064;28;20028;-36
2021/12/08 01:16:36;;;;;;;2.00;0.90;;;14.80;49.20;;;;;;5076999;28;20036;-37
2021/12/08 01:19:03;;;;;;;2.85;0.82;;;14.80;49.20;;;;;;5078233;28;20019;-36
2021/12/08 01:21:29;;;;;;;2.13;0.70;;;14.80;49.20;;;;;;5075735;28;20019;-36
2021/12/08 01:23:56;;;;;;;2.15;1.00;;;14.80;49.40;;;;;;5079047;28;20028;-38
2021/12/08 01:26:22;;;;;;;1.58;0.73;;;14.80;49.20;;;;;;5077096;28;20020;-37
2021/12/08 01:28:52;;;;;;;2.30;0.90;;;14.80;49.20;;;;;;5075514;28;20028;-36
2021/12/08 01:31:18;;;;;;;1.77;0.80;;;14.80;49.30;;;;;;5075191;28;20096;-36
2021/12/08 01:33:44;;;;;;;2.53;1.00;;;14.80;49.30;;;;;;5094878;28;20533;-35
2021/12/08 01:36:10;;;;;;;1.75;0.80;;;14.80;49.40;;;;;;5078009;28;20016;-35
2021/12/08 01:38:36;;;;;;;1.10;0.70;;;14.70;49.30;;;;;;5096140;28;20020;-36
2021/12/08 01:41:03;;;;;;;2.55;0.90;;;14.80;49.40;;;;;;5078157;28;20027;-35
2021/12/08 01:43:40;;;;;;;2.67;0.90;;;14.80;49.40;;;;;;5096131;28;20020;-37
2021/12/08 01:46:08;;;;;;;1.77;0.80;;;14.70;49.40;;;;;;5098674;28;20091;-36
2021/12/08 01:48:36;;;;;;;1.77;1.00;;;14.70;50.00;;;;;;5098621;28;20020;-37
2021/12/08 01:51:04;;;;;;;2.00;0.95;;;14.70;49.40;;;;;;5097229;28;20012;-36
2021/12/08 01:53:30;;;;;;;2.33;0.80;;;14.70;49.40;;;;;;5095871;28;20028;-36
2021/12/08 01:55:57;;;;;;;2.83;0.90;;;14.70;49.50;;;;;;5095590;28;20089;-35
2021/12/08 01:58:23;;;;;;;2.28;1.10;;;14.70;49.50;;;;;;5094350;28;20607;-37
2021/12/08 02:01:14;;;;;;;2.28;1.02;;;14.70;49.50;;;;;;5093547;28;20377;-37
2021/12/08 02:03:41;;;;;;;2.10;0.90;;;14.70;49.50;;;;;;5094588;28;20062;-36
2021/12/08 02:06:07;;;;;;;2.17;0.85;;;14.70;49.40;;;;;;5094543;28;20024;-36
2021/12/08 02:08:34;;;;;;;1.75;0.60;;;14.70;49.50;;;;;;5094412;28;20411;-37
2021/12/08 02:11:02;;;;;;;2.33;0.80;;;14.70;49.50;;;;;;5076959;28;20423;-36
2021/12/08 02:13:31;;;;;;;2.15;0.93;;;14.70;49.50;;;;;;5094028;28;20083;-36
2021/12/08 02:15:59;;;;;;;1.80;0.80;;;14.70;49.50;;;;;;5094270;28;20030;-36
2021/12/08 02:18:25;;;;;;;2.13;1.00;;;14.70;49.50;;;;;;5076110;28;20046;-36
2021/12/08 02:20:52;;;;;;;3.03;1.10;;;14.70;49.50;;;;;;5076906;28;20074;-37
2021/12/08 02:23:18;;;;;;;2.50;0.95;;;14.70;49.50;;;;;;5060126;28;20047;-36
2021/12/08 02:25:45;;;;;;;2.50;0.95;;;14.70;49.50;;;;;;5077355;28;20020;-38
2021/12/08 02:28:12;;;;;;;1.83;0.80;;;14.70;49.60;;;;;;5095269;28;20026;-37
2021/12/08 02:30:57;;;;;;;3.20;1.05;;;14.70;49.60;;;;;;5095446;28;20378;-38
2021/12/08 02:47:44;;;;;;;2.38;0.95;;;14.60;49.60;;;;;;5094981;28;20513;-37
2021/12/08 02:50:11;;;;;;;3.00;1.00;;;14.70;49.60;;;;;;5080461;28;20363;-35
2021/12/08 02:52:37;;;;;;;1.88;0.90;;;14.60;49.60;;;;;;5060945;28;20478;-37
2021/12/08 02:55:05;;;;;;;2.90;1.00;;;14.60;49.60;;;;;;5077366;28;20020;-35
2021/12/08 02:57:31;;;;;;;3.10;1.00;;;14.60;49.60;;;;;;5095609;28;20073;-35
2021/12/08 02:59:57;;;;;;;2.65;0.85;;;14.60;49.60;;;;;;5094824;28;20378;-36
2021/12/08 03:02:23;;;;;;;1.92;0.75;;;14.60;49.60;;;;;;5077203;28;20028;-37
2021/12/08 03:04:49;;;;;;;1.70;0.80;;;14.60;49.60;;;;;;5095363;28;20016;-36
2021/12/08 03:07:15;;;;;;;2.80;0.80;;;14.60;49.60;;;;;;5094951;28;20023;-37
2021/12/08 03:09:41;;;;;;;2.15;0.98;;;14.60;49.60;;;;;;5060016;28;20028;-36
2021/12/08 03:12:08;;;;;;;2.50;1.00;;;14.60;49.60;;;;;;5076111;28;20386;-36
2021/12/08 03:14:34;;;;;;;2.50;1.00;;;14.60;49.50;;;;;;5076684;28;20028;-36
2021/12/08 03:17:03;;;;;;;1.75;0.80;;;14.60;49.40;;;;;;5094681;28;20374;-36
2021/12/08 03:19:32;;;;;;;2.08;0.90;;;14.60;49.40;;;;;;5076971;28;20504;-37
2021/12/08 03:21:58;;;;;;;3.60;0.90;;;14.70;49.50;;;;;;5094818;28;20074;-37
2021/12/08 03:24:32;;;;;;;2.13;0.80;;;14.70;49.40;;;;;;5076713;28;20478;-36
2021/12/08 03:29:43;;;;;;;1.17;0.70;;;14.70;49.30;;;;;;5095275;28;20079;-35
2021/12/08 03:32:16;;;;;;;3.20;1.00;;;14.70;49.10;;;;;;5095429;28;20028;-35
2021/12/08 03:34:50;;;;;;;2.72;1.10;;;14.80;49.00;;;;;;5094974;28;20394;-38
2021/12/08 03:37:17;;;;;;;2.08;0.77;;;14.90;48.60;;;;;;5094944;28;20016;-36
2021/12/08 03:39:42;;;;;;;2.50;0.80;;;15.00;48.20;;;;;;5093690;28;20066;-35
2021/12/08 03:42:09;;;;;;;3.00;0.88;;;15.20;47.80;;;;;;5094416;28;20020;-36
2021/12/08 03:44:35;;;;;;;1.67;0.70;;;15.30;47.50;;;;;;5094013;28;20024;-36
2021/12/08 03:47:02;;;;;;;1.83;0.90;;;15.40;47.30;;;;;;5093660;28;20095;-36
2021/12/08 03:49:29;;;;;;;2.05;0.70;;;15.40;47.00;;;;;;5093717;28;20489;-36
2021/12/08 03:52:02;;;;;;;1.88;0.80;;;15.50;47.00;;;;;;5093793;28;20027;-36
2021/12/08 03:54:28;;;;;;;1.85;0.73;;;15.50;46.90;;;;;;5093348;28;20413;-37
2021/12/08 03:56:54;;;;;;;3.80;1.05;;;15.50;46.70;;;;;;5075553;28;20020;-36
2021/12/08 03:59:20;;;;;;;2.05;0.80;;;15.60;46.50;;;;;;5093357;28;20768;-36
2021/12/08 04:01:48;;;;;;;2.20;0.80;;;15.70;46.30;;;;;;5075107;28;20402;-37
2021/12/08 04:04:15;;;;;;;1.40;0.80;;;15.80;46.10;;;;;;5076407;28;20027;-36
2021/12/08 04:06:48;;;;;;;2.15;0.80;;;15.80;45.80;;;;;;5093611;28;20428;-36
2021/12/08 04:09:19;;;;;;;2.28;0.70;;;15.90;45.60;;;;;;5076295;28;20027;-36
2021/12/08 04:11:45;;;;;;;2.97;1.17;;;16.00;45.50;;;;;;5093504;28;20107;-37
2021/12/08 04:14:14;;;;;;;2.53;0.98;;;16.10;45.30;;;;;;5093281;28;20016;-36
2021/12/08 04:16:55;;;;;;;2.33;0.90;;;16.10;45.20;;;;;;5093646;28;20024;-36
2021/12/08 04:19:21;;;;;;;2.25;0.93;;;16.20;45.10;;;;;;5093664;28;20431;-36
2021/12/08 04:21:49;;;;;;;1.95;0.80;;;16.20;44.80;;;;;;5093270;28;20437;-36
2021/12/08 04:24:15;;;;;;;1.95;0.75;;;16.30;44.70;;;;;;5096523;28;20034;-36
2021/12/08 04:27:08;;;;;;;1.88;0.73;;;16.30;44.50;;;;;;5097178;28;20032;-37
2021/12/08 04:29:36;;;;;;;1.70;0.93;;;16.40;44.40;;;;;;5078832;28;20475;-36
2021/12/08 04:32:02;;;;;;;2.60;0.90;;;16.50;44.20;;;;;;5096681;28;20040;-35
2021/12/08 04:34:32;;;;;;;3.40;0.85;;;16.50;44.00;;;;;;5096586;28;20490;-36
2021/12/08 04:37:01;;;;;;;1.55;0.70;;;16.60;44.00;;;;;;5096249;28;20521;-36
2021/12/08 04:40:01;;;;;;;3.13;1.20;;;16.60;43.80;;;;;;5095854;28;20467;-36
2021/12/08 04:45:31;;;;;;;2.13;0.80;;;16.70;43.50;;;;;;5065666;28;20105;-36
2021/12/08 04:48:19;;;;;;;1.48;0.70;;;16.80;43.40;;;;;;5097775;28;20008;-37
2021/12/08 04:53:43;;;;;;;1.75;0.80;;;16.90;43.10;;;;;;5096959;28;20043;-35
2021/12/08 05:04:34;;;;;;;2.55;0.77;;;17.10;42.60;;;;;;5081960;28;20107;-37
2021/12/08 05:10:16;;;;;;;1.33;0.68;;;17.30;42.40;;;;;;5096849;28;20035;-36
2021/12/08 05:12:42;;;;;;;1.55;0.73;;;17.30;42.20;;;;;;5097285;28;20060;-36
2021/12/08 05:15:36;;;;;;;2.15;0.68;;;17.30;42.10;;;;;;5097672;28;20046;-36
2021/12/08 05:18:09;;;;;;;2.13;0.82;;;17.40;42.00;;;;;;5055287;28;20091;-37
2021/12/08 05:20:43;;;;;;;2.55;1.10;;;17.50;41.90;;;;;;5057266;28;20020;-36
2021/12/08 05:23:22;;;;;;;2.83;0.60;;;17.50;41.80;;;;;;5057614;28;20535;-36
2021/12/08 05:25:48;;;;;;;1.48;0.55;;;17.50;41.60;;;;;;5058591;28;20013;-37
2021/12/08 05:28:16;;;;;;;2.28;0.70;;;17.60;41.50;;;;;;5058105;28;20456;-36
2021/12/08 05:30:45;;;;;;;3.17;0.75;;;17.60;41.40;;;;;;5056661;28;20040;-36
2021/12/08 05:33:11;;;;;;;2.43;0.80;;;17.70;41.30;;;;;;5056153;28;20029;-37
2021/12/08 05:35:38;;;;;;;2.10;0.88;;;17.70;41.20;;;;;;5057634;28;20013;-37
2021/12/08 05:38:04;;;;;;;2.55;0.80;;;17.80;41.20;;;;;;5058228;28;20009;-38
2021/12/08 05:40:52;;;;;;;2.15;0.70;;;17.80;41.20;;;;;;5039780;28;20039;-36
2021/12/08 05:43:18;;;;;;;3.30;0.90;;;17.90;41.00;;;;;;5055821;28;20025;-36
2021/12/08 05:45:44;;;;;;;1.60;0.65;;;17.90;40.90;;;;;;5038986;28;20540;-36
2021/12/08 05:48:11;;;;;;;1.65;0.68;;;17.90;40.80;;;;;;5056598;28;20021;-37
2021/12/08 05:50:42;;;;;;;2.35;0.75;;;17.90;40.60;;;;;;5038991;28;20018;-36
2021/12/08 05:53:08;;;;;;;3.13;0.68;;;18.00;40.60;;;;;;5056145;28;20108;-36
2021/12/08 05:55:33;;;;;;;2.25;0.80;;;18.00;40.50;;;;;;5055134;28;20052;-36
2021/12/08 05:57:59;;;;;;;2.38;0.85;;;18.10;40.50;;;;;;5055640;28;20017;-37
2021/12/08 06:00:33;;;;;;;2.50;0.88;;;18.10;40.40;;;;;;5055559;28;20020;-37
2021/12/08 06:02:59;;;;;;;2.85;0.98;;;18.10;40.30;;;;;;5056216;28;20045;-37
2021/12/08 06:05:26;;;;;;;1.88;0.70;;;18.10;40.20;;;;;;5055951;28;20467;-37
2021/12/08 06:07:51;;;;;;;2.72;1.10;;;18.20;40.20;;;;;;5021465;28;20074;-36
2021/12/08 06:10:30;;;;;;;2.88;0.80;;;18.20;40.00;;;;;;5055153;28;20460;-36
2021/12/08 06:12:56;;;;;;;2.25;0.70;;;18.30;40.00;;;;;;5054817;28;20025;-36
2021/12/08 06:15:21;;;;;;;3.05;1.00;;;18.30;39.90;;;;;;5055418;28;20036;-36
2021/12/08 06:17:48;;;;;;;2.75;0.90;;;18.30;39.90;;;;;;5037502;28;20048;-36
2021/12/08 06:20:14;;;;;;;3.55;0.82;;;18.40;39.80;;;;;;5036578;28;20395;-36
2021/12/08 06:22:40;;;;;;;3.20;0.80;;;18.40;39.70;;;;;;5054549;28;20135;-36
2021/12/08 06:25:08;;;;;;;2.80;0.80;;;18.40;39.60;;;;;;5036562;28;20045;-36
2021/12/08 06:27:35;;;;;;;2.42;0.90;;;18.40;39.60;;;;;;5054517;28;20463;-37
2021/12/08 06:30:01;;;;;;;1.98;0.80;;;18.50;39.50;;;;;;5054533;28;20024;-37
2021/12/08 06:32:27;;;;;;;1.98;0.77;;;18.40;39.40;;;;;;5054377;28;20020;-37
2021/12/08 06:34:55;;;;;;;4.00;1.17;;;18.50;39.40;;;;;;5053919;28;20032;-36
2021/12/08 06:37:44;;;;;;;3.13;0.90;;;18.50;39.30;;;;;;5054046;28;20033;-38
2021/12/08 06:40:10;;;;;;;2.33;0.80;;;18.60;39.30;;;;;;5054036;28;20040;-36
2021/12/08 06:42:37;;;;;;;3.33;0.90;;;18.60;39.30;;;;;;5036501;28;20021;-37
2021/12/08 06:45:08;;;;;;;3.38;0.80;;;18.60;39.20;;;;;;5036228;28;20009;-37
2021/12/08 06:47:34;;;;;;;2.45;1.02;;;18.60;39.20;;;;;;5054336;28;20052;-36
2021/12/08 06:50:05;;;;;;;3.83;0.88;;;18.60;39.10;;;;;;5054469;28;20074;-36
2021/12/08 06:52:31;;;;;;;;;;;18.70;39.00;;;;;;5037147;28;20021;-36
2021/12/08 06:55:00;;;;;;;1.67;0.73;;;18.70;39.00;;;;;;5054139;28;20356;-36
2021/12/08 06:57:33;;;;;;;2.38;0.80;;;18.70;38.90;;;;;;5053972;28;20016;-36
2021/12/08 07:00:14;;;;;;;1.38;0.65;;;18.70;38.80;;;;;;5053798;28;20040;-36
2021/12/08 07:05:28;;;;;;;2.38;0.77;;;18.80;38.80;;;;;;5036097;28;20067;-36
2021/12/08 07:07:56;;;;;;;1.65;0.90;;;18.80;38.70;;;;;;5053601;28;20028;-36
2021/12/08 07:10:27;;;;;;;2.70;0.95;;;18.80;38.70;;;;;;5035419;28;20013;-36
2021/12/08 07:12:56;;;;;;;1.92;0.70;;;18.80;38.60;;;;;;5052817;28;20032;-36
2021/12/08 07:15:33;;;;;;;1.27;0.70;;;18.80;38.60;;;;;;5068689;28;20052;-35
2021/12/08 07:18:05;;;;;;;3.78;0.90;;;18.80;38.50;;;;;;5073085;28;20102;-37
2021/12/08 07:23:05;;;;;;;2.40;0.77;;;18.80;38.40;;;;;;5072783;28;20052;-35
2021/12/08 07:25:31;;;;;;;2.15;0.98;;;18.90;38.50;;;;;;5055403;28;20403;-35
2021/12/08 07:27:59;;;;;;;1.55;0.70;;;18.80;38.50;;;;;;5073639;28;20040;-36
2021/12/08 07:30:28;;;;;;;3.20;0.80;;;18.90;38.40;;;;;;5074255;28;20395;-36
2021/12/08 07:32:54;;;;;;;1.58;0.63;;;18.90;38.40;;;;;;5074082;28;20100;-37
2021/12/08 07:35:44;;;;;;;1.92;0.70;;;18.90;38.30;;;;;;5074423;28;20108;-36
2021/12/08 07:38:14;;;;;;;3.17;0.88;;;18.90;38.30;;;;;;5074661;28;20005;-36
2021/12/08 07:40:52;;;;;;;2.63;0.90;;;18.90;38.20;;;;;;5074301;28;20019;-36
2021/12/08 07:43:20;;;;;;;3.47;0.90;;;18.90;38.80;;;;;;5074208;28;20025;-36
2021/12/08 07:45:52;;;;;;;2.47;0.80;;;19.00;38.20;;;;;;5073795;28;20066;-36
2021/12/08 07:48:23;;;;;;;1.88;0.70;;;19.00;38.10;;;;;;5074361;28;20020;-36
2021/12/08 07:50:53;;;;;;;2.75;0.80;;;19.00;38.10;;;;;;5074070;28;20024;-36
2021/12/08 07:53:20;;;;;;;;;;;19.00;38.00;;;;;;5074773;28;20025;-37
2021/12/08 07:55:47;;;;;;;4.68;0.95;;;19.00;38.00;;;;;;5074373;28;19951;-36
2021/12/08 07:58:14;;;;;;;3.55;0.90;;;19.10;38.00;;;;;;5074148;28;20017;-35
2021/12/08 08:00:43;;;;;;;2.35;0.88;;;19.10;37.90;;;;;;5077637;28;20021;-36
2021/12/08 08:03:10;;;;;;;2.33;0.73;;;19.10;37.90;;;;;;5077596;28;20103;-36
2021/12/08 08:05:36;;;;;;;1.58;0.70;;;19.10;37.90;;;;;;5078559;28;20017;-35
2021/12/08 08:08:04;;;;;;;1.60;0.77;;;19.20;37.80;;;;;;5077734;28;20024;-36
2021/12/08 08:10:32;;;;;;;2.58;0.80;;;19.20;37.80;;;;;;5077647;28;20016;-36
2021/12/08 08:13:02;;;;;;;1.90;0.90;;;19.20;37.80;;;;;;5077382;28;20039;-35
2021/12/08 08:15:32;;;;;;;2.60;0.80;;;19.20;37.80;;;;;;5075489;28;20078;-36
2021/12/08 08:18:05;;;;;;;1.90;0.70;;;19.10;37.70;;;;;;5077512;28;20028;-36
2021/12/08 08:20:33;;;;;;;1.92;0.80;;;19.20;37.80;;;;;;5078231;28;20028;-36
2021/12/08 08:23:00;;;;;;;2.72;0.90;;;19.10;37.70;;;;;;5077855;28;20057;-36
2021/12/08 08:25:34;;;;;;;2.42;0.80;;;19.20;37.70;;;;;;5076671;28;20128;-36
2021/12/08 08:28:00;;;;;;;2.63;0.90;;;19.20;37.60;;;;;;5060201;28;20104;-36
2021/12/08 08:30:29;;;;;;;3.65;0.90;;;19.20;37.70;;;;;;5060931;28;20021;-36
2021/12/08 08:32:55;;;;;;;2.03;0.82;;;19.20;37.70;;;;;;5078275;28;20013;-36
2021/12/08 08:35:42;;;;;;;2.63;0.70;;;19.20;37.70;;;;;;5076182;28;20017;-37
2021/12/08 08:38:12;;;;;;;2.05;0.80;;;19.20;37.70;;;;;;5077859;28;20017;-36
2021/12/08 08:40:41;;;;;;;3.33;0.90;;;19.20;37.60;;;;;;5078368;28;20012;-36
2021/12/08 08:43:07;;;;;;;2.00;1.05;;;19.20;37.60;;;;;;5060113;28;20095;-36
2021/12/08 08:45:54;;;;;;;2.03;0.80;;;19.10;37.70;;;;;;5077812;28;20024;-37
2021/12/08 08:48:26;;;;;;;4.25;1.10;;;19.20;37.60;;;;;;5077827;28;20016;-36
2021/12/08 08:51:05;;;;;;;2.22;0.70;;;19.20;37.60;;;;;;5078086;28;20025;-38
2021/12/08 08:53:32;;;;;;;1.70;0.80;;;19.20;37.60;;;;;;5060679;28;20021;-36
2021/12/08 08:56:08;;;;;;;1.75;0.90;;;19.20;37.40;;;;;;5078251;28;20012;-36
2021/12/08 08:58:34;;;;;;;3.35;1.08;;;19.30;37.50;;;;;;5077697;28;20017;-35
2021/12/08 09:01:13;;;;;;;1.77;0.63;;;19.30;37.40;;;;;;5077271;28;20048;-37
2021/12/08 09:03:40;;;;;;;2.65;0.82;;;19.40;37.20;;;;;;5058285;28;20107;-36
2021/12/08 09:06:24;;;;;;;2.20;0.70;;;19.60;37.50;;;;;;5076559;28;20016;-35
2021/12/08 09:08:49;;;;;;;2.47;0.70;;;19.80;36.70;;;;;;5075454;28;20051;-36
2021/12/08 09:11:19;;;;;;;2.53;0.90;;;19.90;36.40;;;;;;5076199;28;20017;-36
2021/12/08 09:14:03;;;;;;;3.00;1.17;;;20.00;36.20;;;;;;5075617;28;20047;-36
2021/12/08 09:16:38;;;;;;;2.95;0.98;;;20.20;36.00;;;;;;5075421;28;20040;-36
2021/12/08 09:19:11;;;;;;;3.50;0.82;;;20.20;35.80;;;;;;5076027;28;20086;-36
2021/12/08 09:21:58;;;;;;;5.25;1.45;;;20.30;35.70;;;;;;5078028;28;20044;-36
2021/12/08 09:24:38;;;;;;;1.98;0.68;;;20.30;35.70;;;;;;5077699;28;20028;-36
2021/12/08 09:27:10;;;;;;;1.88;0.73;;;20.40;35.50;;;;;;5059182;28;20026;-36
2021/12/08 09:29:58;;;;;;;1.85;0.70;;;20.40;35.40;;;;;;5077243;28;20067;-38
2021/12/08 09:32:36;;;;;;;2.78;0.60;;;20.30;35.50;;;;;;5077257;28;20485;-35
2021/12/08 09:35:14;;;;;;;4.80;1.38;;;20.30;35.60;;;;;;5058275;28;20035;-36
2021/12/08 09:37:44;;;;;;;2.40;0.80;;;20.20;35.60;;;;;;5076458;28;20009;-36
2021/12/08 09:40:21;;;;;;;2.33;0.90;;;20.20;35.70;;;;;;5075956;28;20451;-36
2021/12/08 09:42:50;;;;;;;1.73;0.75;;;20.20;35.70;;;;;;5076659;28;20013;-36
2021/12/08 09:45:25;;;;;;;2.13;0.80;;;20.20;35.70;;;;;;5075725;28;20447;-36
2021/12/08 09:47:51;;;;;;;2.83;0.90;;;20.20;35.80;;;;;;5075854;28;20041;-36
2021/12/08 09:50:16;;;;;;;2.20;0.90;;;20.10;35.80;;;;;;5075972;28;20536;-36
2021/12/08 09:52:45;;;;;;;3.38;1.00;;;20.10;35.90;;;;;;5076167;28;20031;-36
2021/12/08 09:55:12;;;;;;;3.35;0.80;;;20.10;35.90;;;;;;5075858;28;20028;-37
2021/12/08 09:57:38;;;;;;;3.15;0.70;;;20.10;36.00;;;;;;5075637;28;20481;-36
2021/12/08 10:00:06;;;;;;;1.98;0.73;;;20.10;35.90;;;;;;5075404;28;20097;-36
2021/12/08 10:02:35;;;;;;;2.10;1.00;;;20.10;35.90;;;;;;5075527;28;20467;-37
2021/12/08 10:05:11;;;;;;;3.05;0.90;;;20.10;35.90;;;;;;5075094;28;20029;-36
2021/12/08 10:07:37;;;;;;;2.70;0.80;;;20.10;35.90;;;;;;5074645;28;20027;-36
2021/12/08 10:10:06;;;;;;;2.47;0.70;;;20.10;35.90;;;;;;5075054;28;20023;-36
2021/12/08 10:12:34;;;;;;;3.70;1.10;;;20.10;35.90;;;;;;5056992;28;20032;-36
2021/12/08 10:15:00;;;;;;;2.30;0.80;;;20.10;35.90;;;;;;5073369;28;20029;-36
2021/12/08 10:17:31;;;;;;;2.95;0.80;;;20.10;35.90;;;;;;5074293;28;20147;-37
2021/12/08 10:20:10;;;;;;;4.07;0.80;;;20.10;35.90;;;;;;5074248;28;20017;-37
2021/12/08 10:22:36;;;;;;;2.72;0.70;;;20.20;35.90;;;;;;5074346;28;20032;-37
2021/12/08 10:25:11;;;;;;;2.22;0.80;;;20.20;35.80;;;;;;5075028;28;20005;-36
2021/12/08 10:28:06;;;;;;;2.63;0.85;;;20.20;35.80;;;;;;5074937;28;20035;-36
2021/12/08 10:30:37;;;;;;;2.60;0.82;;;20.20;35.80;;;;;;5056669;28;20034;-36
2021/12/08 10:33:10;;;;;;;3.70;0.80;;;20.20;35.90;;;;;;5074145;28;20040;-37
2021/12/08 10:36:02;;;;;;;3.42;0.90;;;20.20;35.90;;;;;;5074680;28;20015;-37
2021/12/08 10:38:39;;;;;;;2.42;0.90;;;20.30;35.90;;;;;;5074360;28;20012;-37
2021/12/08 10:41:06;;;;;;;3.20;0.90;;;20.30;35.70;;;;;;5073279;28;20066;-37
2021/12/08 10:43:32;;;;;;;3.13;1.08;;;20.40;35.60;;;;;;5074357;28;20013;-37
2021/12/08 10:46:10;;;;;;;2.53;0.90;;;20.40;35.50;;;;;;5056220;28;20020;-37
2021/12/08 10:48:41;;;;;;;2.15;0.80;;;20.50;35.50;;;;;;5074227;28;20071;-38
2021/12/08 10:54:27;;;;;;;4.18;0.77;;;20.50;35.40;;;;;;5073822;28;20063;-36
2021/12/08 10:56:57;;;;;;;1.60;0.65;;;20.60;35.30;;;;;;5073615;28;20034;-36
2021/12/08 10:59:27;;;;;;;4.13;1.00;;;20.60;35.30;;;;;;5073184;28;20474;-36
2021/12/08 11:02:03;;;;;;;3.25;1.20;;;20.60;35.20;;;;;;5073467;28;20447;-37
2021/12/08 11:04:30;;;;;;;3.13;1.13;;;20.70;35.10;;;;;;5073375;28;20052;-37
2021/12/08 11:07:07;;;;;;;3.42;0.90;;;20.80;35.10;;;;;;5072088;28;20123;-37
2021/12/08 11:09:41;;;;;;;3.90;0.90;;;20.80;35.00;;;;;;5073365;28;20020;-37
2021/12/08 11:12:07;;;;;;;2.35;0.82;;;20.80;35.00;;;;;;5073527;28;20020;-37
2021/12/08 11:14:46;;;;;;;3.00;0.80;;;20.80;34.90;;;;;;5074347;28;20021;-37
2021/12/08 11:17:27;;;;;;;3.67;1.00;;;20.80;35.00;;;;;;5073987;28;20131;-37
2021/12/08 11:20:24;;;;;;;4.80;0.90;;;20.80;35.10;;;;;;5073426;28;20044;-36
2021/12/08 11:23:04;;;;;;;4.82;0.88;;;20.70;35.10;;;;;;5074670;28;20051;-37
2021/12/08 11:25:39;;;;;;;2.33;0.90;;;20.60;35.20;;;;;;5074615;28;20062;-38
2021/12/08 11:28:18;;;;;;;3.97;1.20;;;20.60;35.30;;;;;;5074115;28;20287;-35
2021/12/08 11:30:44;;;;;;;2.75;1.08;;;20.60;35.50;;;;;;5073899;28;20063;-37
2021/12/08 11:33:21;;;;;;;2.85;0.90;;;20.50;35.50;;;;;;5077096;28;20029;-37
2021/12/08 11:35:47;;;;;;;2.85;0.60;;;20.50;35.60;;;;;;5077844;28;20478;-34
2021/12/08 11:38:13;;;;;;;3.05;0.95;;;20.40;35.70;;;;;;5077686;28;20424;-35
2021/12/08 11:40:39;;;;;;;2.00;0.80;;;20.30;35.90;;;;;;5077443;28;20043;-36
2021/12/08 11:43:14;;;;;;;3.75;1.10;;;20.20;36.00;;;;;;5076667;28;20032;-35
2021/12/08 11:45:42;;;;;;;5.20;1.30;;;20.10;36.20;;;;;;5076298;28;20013;-36
2021/12/08 11:48:24;;;;;;;3.92;1.00;;;20.00;36.40;;;;;;5078650;28;20021;-36
2021/12/08 11:51:09;;;;;;;2.95;1.10;;;19.90;36.50;;;;;;5078281;28;20009;-35
2021/12/08 11:53:39;;;;;;;2.72;0.85;;;19.80;36.60;;;;;;5077067;28;20548;-35
2021/12/08 11:56:06;;;;;;;;;;;19.80;36.80;;;;;;5077828;28;20013;-36
2021/12/08 11:58:33;;;;;;;2.72;0.90;;;19.70;36.80;;;;;;5077737;28;19904;-35
2021/12/08 12:01:01;;;;;;;3.15;0.95;;;19.70;36.90;;;;;;5077613;28;20016;-35
2021/12/08 12:03:27;;;;;;;2.40;0.80;;;19.60;37.50;;;;;;5077595;28;20025;-38
2021/12/08 12:05:53;;;;;;;3.55;0.80;;;19.50;37.10;;;;;;5077788;28;20035;-35
2021/12/08 12:08:22;;;;;;;2.42;0.88;;;19.40;37.30;;;;;;5077742;28;20020;-38
2021/12/08 12:10:49;;;;;;;2.50;0.77;;;19.40;37.40;;;;;;5078525;28;20044;-36
2021/12/08 12:13:15;;;;;;;2.30;0.70;;;19.40;37.50;;;;;;5078121;28;20051;-38
2021/12/08 12:15:44;;;;;;;3.45;0.90;;;19.30;37.50;;;;;;5077901;28;20013;-35
2021/12/08 12:18:10;;;;;;;2.00;0.88;;;19.20;37.60;;;;;;5077236;28;20090;-37
2021/12/08 12:20:41;;;;;;;4.55;1.08;;;19.10;37.80;;;;;;5077381;28;20020;-35
2021/12/08 12:23:42;;;;;;;3.67;0.98;;;19.00;37.90;;;;;;5076938;28;20017;-35
2021/12/08 12:26:48;;;;;;;4.13;0.90;;;19.00;38.10;;;;;;5076280;28;20021;-36
2021/12/08 12:29:36;;;;;;;3.20;1.10;;;18.90;38.20;;;;;;5077463;28;20009;-35
2021/12/08 12:32:09;;;;;;;2.40;1.00;;;18.80;38.30;;;;;;5077337;28;20025;-35
2021/12/08 12:34:36;;;;;;;4.18;1.00;;;18.80;38.40;;;;;;5077389;28;20487;-35
2021/12/08 12:37:17;;;;;;;5.20;1.63;;;18.70;38.60;;;;;;5059989;28;20020;-37
2021/12/08 12:39:49;;;;;;;8.30;1.60;;;18.70;38.60;;;;;;5078377;28;20017;-38
2021/12/08 12:42:18;;;;;;;3.00;0.98;;;18.60;38.60;;;;;;5077837;28;20017;-37
2021/12/08 12:45:08;;;;;;;4.60;0.95;;;18.60;38.70;;;;;;5076680;28;20016;-34
2021/12/08 12:47:33;;;;;;;;;;;18.50;38.80;;;;;;5073948;28;20063;-35
2021/12/08 12:50:16;;;;;;;3.70;1.02;;;18.50;38.90;;;;;;5060778;28;20363;-37
2021/12/08 12:52:48;;;;;;;3.53;1.00;;;18.50;39.00;;;;;;5078277;28;20056;-37
2021/12/08 12:55:14;;;;;;;5.47;1.13;;;18.40;39.00;;;;;;5077146;28;20550;-37
2021/12/08 12:57:59;;;;;;;5.70;1.27;;;18.40;39.20;;;;;;5077485;28;20012;-36
2021/12/08 13:00:31;;;;;;;4.20;1.15;;;18.30;39.20;;;;;;5077493;28;20553;-37
2021/12/08 13:02:56;;;;;;;3.90;1.10;;;18.20;39.30;;;;;;5078081;28;20091;-37
2021/12/08 13:05:22;;;;;;;2.47;1.13;;;18.20;39.50;;;;;;5059549;28;20101;-35
2021/12/08 13:07:58;;;;;;;4.65;1.20;;;18.20;39.50;;;;;;5076392;28;20020;-38
2021/12/08 13:10:36;;;;;;;2.20;1.00;;;18.10;39.60;;;;;;5078493;28;20035;-38
2021/12/08 13:13:30;;;;;;;5.70;1.13;;;18.10;39.70;;;;;;5061291;28;20009;-37
2021/12/08 13:15:56;;;;;;;4.22;1.20;;;18.10;39.80;;;;;;5058223;28;20035;-38
2021/12/08 13:18:23;;;;;;;6.65;1.50;;;18.00;39.80;;;;;;5076204;28;20390;-35
2021/12/08 13:20:58;;;;;;;3.90;1.10;;;18.00;39.90;;;;;;5077755;28;20095;-38
2021/12/08 13:23:27;;;;;;;3.88;1.20;;;18.00;40.00;;;;;;5077750;28;20096;-38
2021/12/08 13:28:27;;;;;;;3.63;1.35;;;17.90;40.20;;;;;;5077584;28;20021;-37
2021/12/08 13:31:06;;;;;;;3.72;1.13;;;17.80;40.20;;;;;;5077357;28;20020;-36
2021/12/08 13:33:42;;;;;;;6.68;1.20;;;17.80;40.30;;;;;;5076525;28;20100;-36
2021/12/08 13:36:28;;;;;;;4.75;1.27;;;17.70;40.30;;;;;;5077231;28;20059;-37
2021/12/08 13:38:54;;;;;;;4.22;1.33;;;17.70;40.40;;;;;;5076859;28;20471;-37
2021/12/08 13:41:30;;;;;;;6.72;1.50;;;17.70;40.50;;;;;;5077758;28;20100;-38
2021/12/08 13:43:57;;;;;;;8.25;1.30;;;17.60;40.60;;;;;;5076894;28;20043;-38
2021/12/08 13:46:43;;;;;;;6.93;1.42;;;17.60;40.60;;;;;;5077381;28;20013;-37
2021/12/08 13:49:11;;;;;;;8.88;1.40;;;17.60;40.70;;;;;;5077528;28;20096;-38
2021/12/08 13:51:37;;;;;;;8.35;1.80;;;17.60;40.80;;;;;;5076877;28;20477;-37
2021/12/08 13:54:28;;;;;;;10.30;1.40;;;17.50;40.90;;;;;;5075431;28;20016;-38